Hlavní strana
METAR-TAF:

METAR-TAF

Letiště :

Hilton Head Airport

Hilton Head Island, Jižní Karolína, Spojené státy americké

zeměpisná šířka: 32-13N, zeměpisná délka: 080-42W, výška: 6 m

Aktuální stav počasí

Zpráva byla vytvořena před 17 minutami, v 13:50 UTC
Severoseverozápadní vítr 5 kt
Teplota 9°C
Vlhkost vzduchu 81%
Tlak 1017 hPa
Viditelnost: 16.1 km
Jasno

METAR: KHXD 281350Z 34005KT 10SM CLR 09/06 A3003

Čas: 09:07 (14:07 UTC)


TAF: chybějící

Stav a předpovědi počasí z více než 4 000 letišť (zprávy METAR a TAF).

Červené a žluté tečky na mapě představují dostupné meteorologické stanice.

Když kurzor umístíte na tečku, zobrazí se název stanice.

Pak kliknutím zobrazíte stav a předpověď počasí.

Chcete-li změnit mapu, kliknutím na zelené tlačítko se znaménkem +mapu přiblížíte, kliknutím na zelené tlačítko se znaménkem – mapu oddálíte a kliknutím na zelené šipky přejdete na sousední mapy.


METAR-TAF: